Accueil
METAR-TAF:

METAR-TAF

Aéroports :

Istres, France

Base aérienne 125 Istres-Le Tubé

latitude: 43-31N, longitude: 004-56E, altitude: 23 m

Observation

Le bulletin a été fait il y a 30 minutes, à 08:30 UTC
Vent 18 kt de nord-ouest
Température 9°C
Humidité 66%
Pression 1011 hPa
Visibilité 10 km ou plus
pas de nuages en-dessous de 1500 mètres et pas de cumulonimbus.

METAR: LFMI 270830Z AUTO 32018KT CAVOK 09/03 Q1011 TEMPO 35020G30KT

Heure: 11:00 (09:00 UTC)

Prévision

Le bulletin a été fait il y a 1 heure et 0 minutes, à 08:00 UTC
Prévision valable du 27 à 09 UTC au 28 à 09 UTC
Vent 15 kt de nord/nord-ouest
Visibilité 10 km ou plus
pas de nuages en-dessous de 1500 mètres et pas de cumulonimbus.
Temporairement
du 27 à 09 UTC au 28 à 09 UTC
Vent 20 kt de nord avec des rafales jusqu'à 30 kt

TAF: LFMI 270800Z 2709/2809 33015KT CAVOK TEMPO 2709/2809 35020G30KT

Observations et prévisions météorologiques de plus de 4000 aéroports (messages METAR et TAF).

Les stations disponibles sont représentées par des disques jaunes et rouges sur la carte.

Passer la souris dessus pour voir le nom de la station.

Cliquer dessus pour voir les observations et prévisions météorologiques.

Pour changer de carte: cliquez sur les boutons verts avec une croix noire pour zoomer, sur le bouton vert avec un tiret pour effectuer un zoom arrière, ou sur les flèches vertes pour les cartes adjacentes.


METAR-TAF: